sensor_id;sensor_type;location;lat;lon;timestamp;pressure;altitude;pressure_sealevel;temperature;humidity
4022;BME280;2025;48.260;16.432;2023-01-26T00:02:27;100511.34;;;2.58;100.00
4022;BME280;2025;48.260;16.432;2023-01-26T00:04:54;100501.56;;;2.69;100.00
4022;BME280;2025;48.260;16.432;2023-01-26T00:07:21;100506.78;;;2.86;100.00
4022;BME280;2025;48.260;16.432;2023-01-26T00:09:48;100510.56;;;2.93;100.00
4022;BME280;2025;48.260;16.432;2023-01-26T00:12:15;100498.00;;;2.67;100.00
4022;BME280;2025;48.260;16.432;2023-01-26T00:14:42;100498.13;;;2.86;100.00
4022;BME280;2025;48.260;16.432;2023-01-26T00:17:20;100485.47;;;2.58;100.00
4022;BME280;2025;48.260;16.432;2023-01-26T00:19:54;100489.44;;;2.51;100.00
4022;BME280;2025;48.260;16.432;2023-01-26T00:22:22;100491.38;;;2.55;100.00
4022;BME280;2025;48.260;16.432;2023-01-26T00:24:49;100489.19;;;2.63;100.00
4022;BME280;2025;48.260;16.432;2023-01-26T00:27:16;100484.06;;;2.81;100.00
4022;BME280;2025;48.260;16.432;2023-01-26T00:29:43;100493.47;;;2.46;100.00
4022;BME280;2025;48.260;16.432;2023-01-26T00:32:10;100499.28;;;2.58;100.00
4022;BME280;2025;48.260;16.432;2023-01-26T00:34:38;100494.81;;;2.88;100.00
4022;BME280;2025;48.260;16.432;2023-01-26T00:37:05;100495.34;;;2.99;100.00
4022;BME280;2025;48.260;16.432;2023-01-26T00:39:32;100491.97;;;2.84;100.00
4022;BME280;2025;48.260;16.432;2023-01-26T00:41:59;100481.19;;;2.58;100.00
4022;BME280;2025;48.260;16.432;2023-01-26T00:44:39;100493.22;;;3.08;100.00
4022;BME280;2025;48.260;16.432;2023-01-26T00:47:08;100481.44;;;2.63;100.00
4022;BME280;2025;48.260;16.432;2023-01-26T00:49:35;100482.97;;;2.60;100.00
4022;BME280;2025;48.260;16.432;2023-01-26T00:52:03;100485.38;;;2.73;100.00
4022;BME280;2025;48.260;16.432;2023-01-26T00:54:30;100489.81;;;3.09;100.00
4022;BME280;2025;48.260;16.432;2023-01-26T00:56:56;100492.44;;;3.27;100.00
4022;BME280;2025;48.260;16.432;2023-01-26T00:59:23;100479.59;;;3.12;100.00
4022;BME280;2025;48.260;16.432;2023-01-26T01:01:51;100483.81;;;3.10;100.00
4022;BME280;2025;48.260;16.432;2023-01-26T01:04:18;100479.75;;;3.15;100.00
4022;BME280;2025;48.260;16.432;2023-01-26T01:06:45;100471.19;;;3.16;100.00
4022;BME280;2025;48.260;16.432;2023-01-26T01:09:13;100473.09;;;3.03;100.00
4022;BME280;2025;48.260;16.432;2023-01-26T01:11:40;100473.00;;;3.01;100.00
4022;BME280;2025;48.260;16.432;2023-01-26T01:14:10;100472.47;;;2.90;100.00
4022;BME280;2025;48.260;16.432;2023-01-26T01:16:37;100463.44;;;2.82;100.00
4022;BME280;2025;48.260;16.432;2023-01-26T01:19:04;100460.19;;;2.86;100.00
4022;BME280;2025;48.260;16.432;2023-01-26T01:21:31;100461.94;;;2.70;100.00
4022;BME280;2025;48.260;16.432;2023-01-26T01:23:58;100455.00;;;2.86;100.00
4022;BME280;2025;48.260;16.432;2023-01-26T01:26:27;100458.38;;;3.19;100.00
4022;BME280;2025;48.260;16.432;2023-01-26T01:28:54;100457.44;;;2.83;100.00
4022;BME280;2025;48.260;16.432;2023-01-26T01:31:23;100449.03;;;2.37;100.00
4022;BME280;2025;48.260;16.432;2023-01-26T01:33:51;100438.97;;;2.60;100.00
4022;BME280;2025;48.260;16.432;2023-01-26T01:36:18;100439.28;;;2.66;100.00
4022;BME280;2025;48.260;16.432;2023-01-26T01:38:46;100434.56;;;2.75;100.00
4022;BME280;2025;48.260;16.432;2023-01-26T01:41:13;100446.34;;;2.52;100.00
4022;BME280;2025;48.260;16.432;2023-01-26T01:43:42;100432.38;;;2.48;100.00
4022;BME280;2025;48.260;16.432;2023-01-26T01:46:19;100432.41;;;3.00;100.00
4022;BME280;2025;48.260;16.432;2023-01-26T01:48:51;100432.97;;;2.77;100.00
4022;BME280;2025;48.260;16.432;2023-01-26T01:51:31;100435.94;;;2.84;100.00
4022;BME280;2025;48.260;16.432;2023-01-26T01:54:02;100433.13;;;2.98;100.00
4022;BME280;2025;48.260;16.432;2023-01-26T01:56:31;100422.75;;;2.80;100.00
4022;BME280;2025;48.260;16.432;2023-01-26T01:59:02;100420.50;;;3.04;100.00
4022;BME280;2025;48.260;16.432;2023-01-26T02:01:30;100427.91;;;3.32;100.00
4022;BME280;2025;48.260;16.432;2023-01-26T02:03:58;100425.25;;;3.48;100.00
4022;BME280;2025;48.260;16.432;2023-01-26T02:06:29;100422.34;;;3.42;100.00
4022;BME280;2025;48.260;16.432;2023-01-26T02:08:57;100416.34;;;3.43;100.00
4022;BME280;2025;48.260;16.432;2023-01-26T02:11:28;100409.75;;;3.32;100.00
4022;BME280;2025;48.260;16.432;2023-01-26T02:13:56;100403.25;;;3.40;100.00
4022;BME280;2025;48.260;16.432;2023-01-26T02:16:25;100404.81;;;3.54;100.00
4022;BME280;2025;48.260;16.432;2023-01-26T02:18:52;100405.00;;;3.41;100.00
4022;BME280;2025;48.260;16.432;2023-01-26T02:21:21;100406.66;;;3.39;100.00
4022;BME280;2025;48.260;16.432;2023-01-26T02:24:00;100402.81;;;2.95;100.00
4022;BME280;2025;48.260;16.432;2023-01-26T02:26:32;100397.09;;;2.84;100.00
4022;BME280;2025;48.260;16.432;2023-01-26T02:29:01;100392.16;;;3.25;100.00
4022;BME280;2025;48.260;16.432;2023-01-26T02:31:29;100396.31;;;3.21;100.00
4022;BME280;2025;48.260;16.432;2023-01-26T02:33:56;100395.13;;;2.97;100.00
4022;BME280;2025;48.260;16.432;2023-01-26T02:36:24;100400.22;;;3.31;100.00
4022;BME280;2025;48.260;16.432;2023-01-26T02:38:57;100392.00;;;3.21;100.00
4022;BME280;2025;48.260;16.432;2023-01-26T02:41:26;100383.56;;;2.90;100.00
4022;BME280;2025;48.260;16.432;2023-01-26T02:44:12;100377.66;;;2.93;100.00
4022;BME280;2025;48.260;16.432;2023-01-26T02:46:40;100378.16;;;2.68;100.00
4022;BME280;2025;48.260;16.432;2023-01-26T02:49:06;100377.22;;;2.49;100.00
4022;BME280;2025;48.260;16.432;2023-01-26T02:51:51;100379.72;;;2.82;100.00
4022;BME280;2025;48.260;16.432;2023-01-26T02:54:17;100374.63;;;3.01;100.00
4022;BME280;2025;48.260;16.432;2023-01-26T02:57:02;100371.81;;;2.79;100.00
4022;BME280;2025;48.260;16.432;2023-01-26T02:59:30;100375.16;;;3.12;100.00
4022;BME280;2025;48.260;16.432;2023-01-26T03:01:57;100364.31;;;2.67;100.00
4022;BME280;2025;48.260;16.432;2023-01-26T03:04:24;100367.44;;;3.13;100.00
4022;BME280;2025;48.260;16.432;2023-01-26T03:06:51;100356.31;;;2.45;100.00
4022;BME280;2025;48.260;16.432;2023-01-26T03:09:18;100352.28;;;2.68;100.00
4022;BME280;2025;48.260;16.432;2023-01-26T03:11:45;100356.66;;;2.86;100.00
4022;BME280;2025;48.260;16.432;2023-01-26T03:14:13;100356.19;;;2.60;100.00
4022;BME280;2025;48.260;16.432;2023-01-26T03:16:42;100363.16;;;3.14;100.00
4022;BME280;2025;48.260;16.432;2023-01-26T03:19:12;100358.50;;;2.71;100.00
4022;BME280;2025;48.260;16.432;2023-01-26T03:21:56;100356.50;;;2.66;100.00
4022;BME280;2025;48.260;16.432;2023-01-26T03:24:41;100355.25;;;2.75;100.00
4022;BME280;2025;48.260;16.432;2023-01-26T03:27:26;100351.47;;;2.69;100.00
4022;BME280;2025;48.260;16.432;2023-01-26T03:29:53;100345.06;;;2.44;100.00
4022;BME280;2025;48.260;16.432;2023-01-26T03:32:22;100346.06;;;2.64;100.00
4022;BME280;2025;48.260;16.432;2023-01-26T03:34:49;100347.59;;;2.43;100.00
4022;BME280;2025;48.260;16.432;2023-01-26T03:37:16;100340.66;;;2.60;100.00
4022;BME280;2025;48.260;16.432;2023-01-26T03:39:48;100342.66;;;2.65;100.00
4022;BME280;2025;48.260;16.432;2023-01-26T03:42:33;100348.53;;;2.97;100.00
4022;BME280;2025;48.260;16.432;2023-01-26T03:45:17;100350.50;;;3.02;100.00
4022;BME280;2025;48.260;16.432;2023-01-26T03:48:08;100351.09;;;3.14;100.00
4022;BME280;2025;48.260;16.432;2023-01-26T03:50:52;100342.69;;;2.31;100.00
4022;BME280;2025;48.260;16.432;2023-01-26T03:53:36;100332.50;;;2.34;100.00
4022;BME280;2025;48.260;16.432;2023-01-26T03:56:20;100330.34;;;2.25;100.00
4022;BME280;2025;48.260;16.432;2023-01-26T03:58:50;100321.84;;;2.28;100.00
4022;BME280;2025;48.260;16.432;2023-01-26T04:01:17;100327.84;;;2.45;100.00
4022;BME280;2025;48.260;16.432;2023-01-26T04:03:50;100319.97;;;2.77;100.00
4022;BME280;2025;48.260;16.432;2023-01-26T04:06:35;100323.69;;;2.31;100.00
4022;BME280;2025;48.260;16.432;2023-01-26T04:09:20;100316.63;;;2.44;100.00
4022;BME280;2025;48.260;16.432;2023-01-26T04:11:47;100323.44;;;2.78;100.00
4022;BME280;2025;48.260;16.432;2023-01-26T04:14:14;100314.34;;;2.50;100.00
4022;BME280;2025;48.260;16.432;2023-01-26T04:16:59;100305.91;;;2.37;100.00
4022;BME280;2025;48.260;16.432;2023-01-26T04:19:46;100292.81;;;2.00;100.00
4022;BME280;2025;48.260;16.432;2023-01-26T04:22:31;100288.41;;;2.15;100.00
4022;BME280;2025;48.260;16.432;2023-01-26T04:25:09;100287.09;;;2.23;100.00
4022;BME280;2025;48.260;16.432;2023-01-26T04:27:36;100292.47;;;2.10;100.00
4022;BME280;2025;48.260;16.432;2023-01-26T04:30:03;100285.84;;;2.15;100.00
4022;BME280;2025;48.260;16.432;2023-01-26T04:32:31;100288.41;;;2.67;100.00
4022;BME280;2025;48.260;16.432;2023-01-26T04:34:59;100291.13;;;2.34;100.00
4022;BME280;2025;48.260;16.432;2023-01-26T04:37:26;100292.13;;;2.20;100.00
4022;BME280;2025;48.260;16.432;2023-01-26T04:39:53;100286.47;;;2.45;100.00
4022;BME280;2025;48.260;16.432;2023-01-26T04:42:20;100283.97;;;2.46;100.00
4022;BME280;2025;48.260;16.432;2023-01-26T04:44:49;100290.84;;;2.64;100.00
4022;BME280;2025;48.260;16.432;2023-01-26T04:47:16;100294.16;;;2.79;100.00
4022;BME280;2025;48.260;16.432;2023-01-26T04:49:42;100292.41;;;2.60;100.00
4022;BME280;2025;48.260;16.432;2023-01-26T04:52:11;100284.34;;;2.72;100.00
4022;BME280;2025;48.260;16.432;2023-01-26T04:54:38;100279.00;;;2.69;100.00
4022;BME280;2025;48.260;16.432;2023-01-26T04:57:05;100283.59;;;2.56;100.00
4022;BME280;2025;48.260;16.432;2023-01-26T04:59:32;100275.88;;;2.94;100.00
4022;BME280;2025;48.260;16.432;2023-01-26T05:01:59;100285.06;;;2.87;100.00
4022;BME280;2025;48.260;16.432;2023-01-26T05:04:26;100286.88;;;3.07;100.00
4022;BME280;2025;48.260;16.432;2023-01-26T05:06:52;100277.91;;;2.64;100.00
4022;BME280;2025;48.260;16.432;2023-01-26T05:09:21;100269.19;;;2.62;100.00
4022;BME280;2025;48.260;16.432;2023-01-26T05:11:48;100271.31;;;2.88;100.00
4022;BME280;2025;48.260;16.432;2023-01-26T05:14:14;100272.22;;;2.71;100.00
4022;BME280;2025;48.260;16.432;2023-01-26T05:16:41;100270.88;;;2.79;100.00
4022;BME280;2025;48.260;16.432;2023-01-26T05:19:08;100274.47;;;3.00;100.00
4022;BME280;2025;48.260;16.432;2023-01-26T05:21:35;100264.09;;;2.45;100.00
4022;BME280;2025;48.260;16.432;2023-01-26T05:24:02;100265.84;;;2.82;100.00
4022;BME280;2025;48.260;16.432;2023-01-26T05:26:30;100262.66;;;2.87;100.00
4022;BME280;2025;48.260;16.432;2023-01-26T05:28:57;100270.06;;;3.17;100.00
4022;BME280;2025;48.260;16.432;2023-01-26T05:31:24;100271.72;;;3.15;100.00
4022;BME280;2025;48.260;16.432;2023-01-26T05:33:50;100271.72;;;3.15;100.00
4022;BME280;2025;48.260;16.432;2023-01-26T05:36:17;100271.44;;;3.09;100.00
4022;BME280;2025;48.260;16.432;2023-01-26T05:38:44;100266.06;;;3.23;100.00
4022;BME280;2025;48.260;16.432;2023-01-26T05:41:11;100268.66;;;3.23;100.00
4022;BME280;2025;48.260;16.432;2023-01-26T05:43:39;100276.16;;;3.17;100.00
4022;BME280;2025;48.260;16.432;2023-01-26T05:46:06;100271.09;;;3.20;100.00
4022;BME280;2025;48.260;16.432;2023-01-26T05:48:39;100276.78;;;2.76;100.00
4022;BME280;2025;48.260;16.432;2023-01-26T05:51:06;100266.56;;;2.97;100.00
4022;BME280;2025;48.260;16.432;2023-01-26T05:53:33;100271.16;;;2.85;100.00
4022;BME280;2025;48.260;16.432;2023-01-26T05:55:59;100271.63;;;3.13;100.00
4022;BME280;2025;48.260;16.432;2023-01-26T05:58:26;100279.31;;;2.75;100.00
4022;BME280;2025;48.260;16.432;2023-01-26T06:00:55;100273.97;;;2.89;100.00
4022;BME280;2025;48.260;16.432;2023-01-26T06:03:28;100278.13;;;2.86;100.00
4022;BME280;2025;48.260;16.432;2023-01-26T06:05:54;100275.28;;;2.99;100.00
4022;BME280;2025;48.260;16.432;2023-01-26T06:08:27;100282.81;;;3.12;100.00
4022;BME280;2025;48.260;16.432;2023-01-26T06:10:58;100277.44;;;3.27;100.00
4022;BME280;2025;48.260;16.432;2023-01-26T06:13:25;100284.16;;;3.41;100.00
4022;BME280;2025;48.260;16.432;2023-01-26T06:15:51;100282.00;;;3.50;100.00
4022;BME280;2025;48.260;16.432;2023-01-26T06:18:22;100281.75;;;3.46;100.00
4022;BME280;2025;48.260;16.432;2023-01-26T06:20:51;100277.16;;;3.21;100.00
4022;BME280;2025;48.260;16.432;2023-01-26T06:23:18;100280.88;;;3.45;100.00
4022;BME280;2025;48.260;16.432;2023-01-26T06:25:45;100275.88;;;3.31;100.00
4022;BME280;2025;48.260;16.432;2023-01-26T06:28:11;100278.59;;;3.51;100.00
4022;BME280;2025;48.260;16.432;2023-01-26T06:30:41;100276.34;;;3.22;100.00
4022;BME280;2025;48.260;16.432;2023-01-26T06:33:08;100275.22;;;3.35;100.00
4022;BME280;2025;48.260;16.432;2023-01-26T06:35:36;100277.25;;;3.22;100.00
4022;BME280;2025;48.260;16.432;2023-01-26T06:38:05;100270.50;;;3.45;100.00
4022;BME280;2025;48.260;16.432;2023-01-26T06:40:32;100277.56;;;3.48;100.00
4022;BME280;2025;48.260;16.432;2023-01-26T06:42:59;100280.78;;;3.62;100.00
4022;BME280;2025;48.260;16.432;2023-01-26T06:45:26;100280.16;;;3.67;100.00
4022;BME280;2025;48.260;16.432;2023-01-26T06:47:52;100274.66;;;3.42;100.00
4022;BME280;2025;48.260;16.432;2023-01-26T06:50:20;100278.22;;;3.44;100.00
4022;BME280;2025;48.260;16.432;2023-01-26T06:52:54;100278.75;;;3.00;100.00
4022;BME280;2025;48.260;16.432;2023-01-26T06:55:25;100272.78;;;3.01;100.00
4022;BME280;2025;48.260;16.432;2023-01-26T06:57:55;100277.25;;;3.42;100.00
4022;BME280;2025;48.260;16.432;2023-01-26T07:00:22;100278.28;;;3.45;100.00
4022;BME280;2025;48.260;16.432;2023-01-26T07:02:49;100276.69;;;2.93;100.00
4022;BME280;2025;48.260;16.432;2023-01-26T07:05:16;100273.16;;;3.28;100.00
4022;BME280;2025;48.260;16.432;2023-01-26T07:07:43;100275.59;;;3.62;100.00
4022;BME280;2025;48.260;16.432;2023-01-26T07:10:11;100283.16;;;3.57;100.00
4022;BME280;2025;48.260;16.432;2023-01-26T07:12:39;100283.72;;;3.69;100.00
4022;BME280;2025;48.260;16.432;2023-01-26T07:15:08;100286.44;;;3.72;100.00
4022;BME280;2025;48.260;16.432;2023-01-26T07:17:35;100286.97;;;3.65;100.00
4022;BME280;2025;48.260;16.432;2023-01-26T07:20:03;100286.22;;;3.68;100.00
4022;BME280;2025;48.260;16.432;2023-01-26T07:22:30;100272.13;;;3.61;100.00
4022;BME280;2025;48.260;16.432;2023-01-26T07:24:57;100270.84;;;3.34;100.00
4022;BME280;2025;48.260;16.432;2023-01-26T07:27:25;100274.38;;;3.73;100.00
4022;BME280;2025;48.260;16.432;2023-01-26T07:29:52;100271.97;;;3.77;100.00
4022;BME280;2025;48.260;16.432;2023-01-26T07:32:19;100272.53;;;3.51;100.00
4022;BME280;2025;48.260;16.432;2023-01-26T07:34:46;100268.00;;;3.85;100.00
4022;BME280;2025;48.260;16.432;2023-01-26T07:37:13;100260.50;;;2.97;100.00
4022;BME280;2025;48.260;16.432;2023-01-26T07:39:40;100256.25;;;3.36;100.00
4022;BME280;2025;48.260;16.432;2023-01-26T07:42:08;100265.00;;;3.38;100.00
4022;BME280;2025;48.260;16.432;2023-01-26T07:44:37;100263.41;;;3.41;100.00
4022;BME280;2025;48.260;16.432;2023-01-26T07:47:04;100262.16;;;3.70;100.00
4022;BME280;2025;48.260;16.432;2023-01-26T07:49:31;100262.31;;;3.54;100.00
4022;BME280;2025;48.260;16.432;2023-01-26T07:51:58;100245.44;;;3.44;100.00
4022;BME280;2025;48.260;16.432;2023-01-26T07:54:25;100257.25;;;3.57;100.00
4022;BME280;2025;48.260;16.432;2023-01-26T07:56:52;100252.81;;;3.54;100.00
4022;BME280;2025;48.260;16.432;2023-01-26T07:59:20;100258.59;;;3.88;100.00
4022;BME280;2025;48.260;16.432;2023-01-26T08:01:49;100262.03;;;3.67;100.00
4022;BME280;2025;48.260;16.432;2023-01-26T08:04:16;100249.28;;;3.52;100.00
4022;BME280;2025;48.260;16.432;2023-01-26T08:06:45;100259.03;;;3.58;100.00
4022;BME280;2025;48.260;16.432;2023-01-26T08:09:14;100258.81;;;3.73;100.00
4022;BME280;2025;48.260;16.432;2023-01-26T08:11:41;100263.94;;;3.71;100.00
4022;BME280;2025;48.260;16.432;2023-01-26T08:14:08;100258.16;;;3.98;100.00
4022;BME280;2025;48.260;16.432;2023-01-26T08:16:35;100257.84;;;4.11;100.00
4022;BME280;2025;48.260;16.432;2023-01-26T08:19:03;100264.00;;;4.13;100.00
4022;BME280;2025;48.260;16.432;2023-01-26T08:21:30;100255.47;;;3.75;100.00
4022;BME280;2025;48.260;16.432;2023-01-26T08:23:56;100259.81;;;3.38;100.00
4022;BME280;2025;48.260;16.432;2023-01-26T08:26:26;100262.56;;;3.60;100.00
4022;BME280;2025;48.260;16.432;2023-01-26T08:28:54;100256.41;;;3.77;100.00
4022;BME280;2025;48.260;16.432;2023-01-26T08:31:21;100258.63;;;3.49;100.00
4022;BME280;2025;48.260;16.432;2023-01-26T08:33:50;100250.72;;;3.28;100.00
4022;BME280;2025;48.260;16.432;2023-01-26T08:36:21;100246.38;;;3.27;100.00
4022;BME280;2025;48.260;16.432;2023-01-26T08:38:48;100244.00;;;3.32;100.00
4022;BME280;2025;48.260;16.432;2023-01-26T08:41:15;100243.81;;;3.66;100.00
4022;BME280;2025;48.260;16.432;2023-01-26T08:43:42;100246.84;;;3.96;100.00
4022;BME280;2025;48.260;16.432;2023-01-26T08:46:09;100248.53;;;9.29;100.00
4022;BME280;2025;48.260;16.432;2023-01-26T08:48:38;100257.91;;;4.97;100.00
4022;BME280;2025;48.260;16.432;2023-01-26T08:51:06;100253.06;;;4.41;100.00
4022;BME280;2025;48.260;16.432;2023-01-26T08:53:36;100249.38;;;4.57;100.00
4022;BME280;2025;48.260;16.432;2023-01-26T08:56:04;100245.84;;;4.55;100.00
4022;BME280;2025;48.260;16.432;2023-01-26T08:58:32;100250.75;;;3.86;100.00
4022;BME280;2025;48.260;16.432;2023-01-26T09:01:03;100245.84;;;3.73;100.00
4022;BME280;2025;48.260;16.432;2023-01-26T09:03:29;100242.50;;;3.75;100.00
4022;BME280;2025;48.260;16.432;2023-01-26T09:05:58;100239.09;;;3.76;100.00
4022;BME280;2025;48.260;16.432;2023-01-26T09:08:26;100242.94;;;3.65;100.00
4022;BME280;2025;48.260;16.432;2023-01-26T09:10:54;100237.00;;;3.48;100.00
4022;BME280;2025;48.260;16.432;2023-01-26T09:13:21;100243.31;;;3.74;100.00
4022;BME280;2025;48.260;16.432;2023-01-26T09:15:49;100239.09;;;3.76;100.00
4022;BME280;2025;48.260;16.432;2023-01-26T09:18:16;100245.06;;;3.95;100.00
4022;BME280;2025;48.260;16.432;2023-01-26T09:20:43;100247.44;;;3.50;100.00
4022;BME280;2025;48.260;16.432;2023-01-26T09:23:10;100248.81;;;4.22;100.00
4022;BME280;2025;48.260;16.432;2023-01-26T09:25:38;100251.78;;;4.31;100.00
4022;BME280;2025;48.260;16.432;2023-01-26T09:28:07;100253.88;;;3.98;100.00
4022;BME280;2025;48.260;16.432;2023-01-26T09:30:33;100250.53;;;4.22;100.00
4022;BME280;2025;48.260;16.432;2023-01-26T09:33:02;100249.34;;;3.73;100.00
4022;BME280;2025;48.260;16.432;2023-01-26T09:35:30;100249.81;;;3.65;100.00
4022;BME280;2025;48.260;16.432;2023-01-26T09:37:57;100242.00;;;3.84;100.00
4022;BME280;2025;48.260;16.432;2023-01-26T09:40:33;100242.47;;;3.54;100.00
4022;BME280;2025;48.260;16.432;2023-01-26T09:43:10;100235.00;;;3.81;100.00
4022;BME280;2025;48.260;16.432;2023-01-26T09:45:48;100245.97;;;4.16;100.00
4022;BME280;2025;48.260;16.432;2023-01-26T09:48:24;100243.19;;;4.32;100.00
4022;BME280;2025;48.260;16.432;2023-01-26T09:51:02;100240.13;;;4.01;100.00
4022;BME280;2025;48.260;16.432;2023-01-26T09:53:40;100241.91;;;4.02;100.00
4022;BME280;2025;48.260;16.432;2023-01-26T09:56:14;100236.22;;;4.31;100.00
4022;BME280;2025;48.260;16.432;2023-01-26T09:58:46;100233.25;;;4.43;100.00
4022;BME280;2025;48.260;16.432;2023-01-26T10:01:18;100228.13;;;4.03;100.00
4022;BME280;2025;48.260;16.432;2023-01-26T10:03:55;100232.16;;;4.38;100.00
4022;BME280;2025;48.260;16.432;2023-01-26T10:06:27;100237.78;;;3.86;100.00
4022;BME280;2025;48.260;16.432;2023-01-26T10:08:58;100229.47;;;4.14;100.00
4022;BME280;2025;48.260;16.432;2023-01-26T10:11:28;100226.16;;;3.57;100.00
4022;BME280;2025;48.260;16.432;2023-01-26T10:14:03;100225.28;;;4.17;100.00
4022;BME280;2025;48.260;16.432;2023-01-26T10:16:33;100220.00;;;4.58;100.00
4022;BME280;2025;48.260;16.432;2023-01-26T10:19:03;100222.94;;;4.24;100.00
4022;BME280;2025;48.260;16.432;2023-01-26T10:21:37;100222.31;;;4.29;100.00
4022;BME280;2025;48.260;16.432;2023-01-26T10:24:08;100215.22;;;4.68;100.00
4022;BME280;2025;48.260;16.432;2023-01-26T10:26:37;100221.47;;;4.30;100.00
4022;BME280;2025;48.260;16.432;2023-01-26T10:29:12;100215.09;;;4.22;100.00
4022;BME280;2025;48.260;16.432;2023-01-26T10:31:40;100202.66;;;4.57;100.00
4022;BME280;2025;48.260;16.432;2023-01-26T10:34:11;100203.75;;;4.41;100.00
4022;BME280;2025;48.260;16.432;2023-01-26T10:36:40;100203.66;;;4.60;100.00
4022;BME280;2025;48.260;16.432;2023-01-26T10:39:08;100196.22;;;4.47;100.00
4022;BME280;2025;48.260;16.432;2023-01-26T10:41:36;100199.53;;;3.80;100.00
4022;BME280;2025;48.260;16.432;2023-01-26T10:44:22;100192.06;;;4.30;100.00
4022;BME280;2025;48.260;16.432;2023-01-26T10:47:02;100180.88;;;4.53;100.00
4022;BME280;2025;48.260;16.432;2023-01-26T10:49:29;100190.44;;;4.11;100.00
4022;BME280;2025;48.260;16.432;2023-01-26T10:52:08;100188.84;;;4.58;100.00
4022;BME280;2025;48.260;16.432;2023-01-26T10:54:40;100179.47;;;4.18;100.00
4022;BME280;2025;48.260;16.432;2023-01-26T10:57:16;100173.66;;;4.24;100.00
4022;BME280;2025;48.260;16.432;2023-01-26T10:59:50;100172.91;;;4.48;100.00
4022;BME280;2025;48.260;16.432;2023-01-26T11:02:22;100165.56;;;4.16;100.00
4022;BME280;2025;48.260;16.432;2023-01-26T11:05:12;100165.19;;;4.28;100.00
4022;BME280;2025;48.260;16.432;2023-01-26T11:07:41;100174.28;;;3.76;100.00
4022;BME280;2025;48.260;16.432;2023-01-26T11:10:21;100158.25;;;3.85;100.00
4022;BME280;2025;48.260;16.432;2023-01-26T11:12:49;100166.50;;;4.18;100.00
4022;BME280;2025;48.260;16.432;2023-01-26T11:15:18;100158.34;;;4.09;100.00
4022;BME280;2025;48.260;16.432;2023-01-26T11:17:53;100156.75;;;4.33;100.00
4022;BME280;2025;48.260;16.432;2023-01-26T11:20:40;100158.88;;;4.43;100.00
4022;BME280;2025;48.260;16.432;2023-01-26T11:23:16;100141.81;;;4.28;100.00
4022;BME280;2025;48.260;16.432;2023-01-26T11:26:04;100145.53;;;4.12;100.00
4022;BME280;2025;48.260;16.432;2023-01-26T11:28:45;100143.13;;;3.96;100.00
4022;BME280;2025;48.260;16.432;2023-01-26T11:31:25;100137.88;;;3.94;100.00
4022;BME280;2025;48.260;16.432;2023-01-26T11:34:04;100132.56;;;4.12;100.00
4022;BME280;2025;48.260;16.432;2023-01-26T11:36:42;100122.19;;;4.34;100.00
4022;BME280;2025;48.260;16.432;2023-01-26T11:39:18;100128.03;;;4.29;100.00
4022;BME280;2025;48.260;16.432;2023-01-26T11:41:58;100117.69;;;4.08;100.00
4022;BME280;2025;48.260;16.432;2023-01-26T11:44:53;100115.81;;;4.26;100.00
4022;BME280;2025;48.260;16.432;2023-01-26T11:47:35;100115.53;;;4.18;100.00
4022;BME280;2025;48.260;16.432;2023-01-26T11:50:21;100115.88;;;4.28;100.00
4022;BME280;2025;48.260;16.432;2023-01-26T11:52:52;100107.94;;;4.45;100.00
4022;BME280;2025;48.260;16.432;2023-01-26T11:55:30;100106.50;;;4.54;100.00
4022;BME280;2025;48.260;16.432;2023-01-26T11:58:10;100093.34;;;4.04;100.00
4022;BME280;2025;48.260;16.432;2023-01-26T12:00:48;100094.81;;;3.98;100.00
4022;BME280;2025;48.260;16.432;2023-01-26T12:03:22;100092.59;;;4.29;100.00
4022;BME280;2025;48.260;16.432;2023-01-26T12:05:53;100095.22;;;4.75;100.00
4022;BME280;2025;48.260;16.432;2023-01-26T12:08:26;100098.66;;;4.98;100.00
4022;BME280;2025;48.260;16.432;2023-01-26T12:11:00;100091.00;;;4.55;100.00
4022;BME280;2025;48.260;16.432;2023-01-26T12:13:53;100089.06;;;4.27;100.00
4022;BME280;2025;48.260;16.432;2023-01-26T12:16:30;100097.00;;;4.76;100.00
4022;BME280;2025;48.260;16.432;2023-01-26T12:19:08;100092.09;;;4.84;100.00
4022;BME280;2025;48.260;16.432;2023-01-26T12:21:41;100089.22;;;4.76;100.00
4022;BME280;2025;48.260;16.432;2023-01-26T12:24:13;100087.59;;;5.04;100.00
4022;BME280;2025;48.260;16.432;2023-01-26T12:26:47;100069.59;;;4.38;100.00
4022;BME280;2025;48.260;16.432;2023-01-26T12:29:21;100077.22;;;4.11;100.00
4022;BME280;2025;48.260;16.432;2023-01-26T12:31:55;100077.03;;;4.29;100.00
4022;BME280;2025;48.260;16.432;2023-01-26T12:34:28;100074.78;;;4.38;100.00
4022;BME280;2025;48.260;16.432;2023-01-26T12:37:06;100070.19;;;4.09;100.00
4022;BME280;2025;48.260;16.432;2023-01-26T12:39:41;100064.72;;;4.01;100.00
4022;BME280;2025;48.260;16.432;2023-01-26T12:42:15;100071.09;;;4.32;100.00
4022;BME280;2025;48.260;16.432;2023-01-26T12:44:49;100052.34;;;4.16;100.00
4022;BME280;2025;48.260;16.432;2023-01-26T12:47:23;100051.16;;;3.65;100.00
4022;BME280;2025;48.260;16.432;2023-01-26T12:49:57;100055.09;;;3.99;100.00
4022;BME280;2025;48.260;16.432;2023-01-26T12:52:30;100053.56;;;4.04;100.00
4022;BME280;2025;48.260;16.432;2023-01-26T12:55:05;100054.50;;;4.06;100.00
4022;BME280;2025;48.260;16.432;2023-01-26T12:57:39;100056.38;;;3.88;100.00
4022;BME280;2025;48.260;16.432;2023-01-26T13:00:17;100059.56;;;3.80;100.00
4022;BME280;2025;48.260;16.432;2023-01-26T13:02:45;100049.44;;;4.31;100.00
4022;BME280;2025;48.260;16.432;2023-01-26T13:05:27;100055.16;;;4.45;100.00
4022;BME280;2025;48.260;16.432;2023-01-26T13:07:54;100054.38;;;3.80;100.00
4022;BME280;2025;48.260;16.432;2023-01-26T13:10:25;100049.03;;;4.67;100.00
4022;BME280;2025;48.260;16.432;2023-01-26T13:12:56;100046.47;;;4.44;100.00
4022;BME280;2025;48.260;16.432;2023-01-26T13:15:25;100047.09;;;4.15;100.00
4022;BME280;2025;48.260;16.432;2023-01-26T13:17:57;100056.63;;;4.84;100.00
4022;BME280;2025;48.260;16.432;2023-01-26T13:20:42;100052.13;;;4.57;100.00